sensor_id;sensor_type;location;lat;lon;timestamp;temperature;humidity
354;DHT22;165;53.592;10.044;2023-03-04T00:00:51;6.00;99.90
354;DHT22;165;53.592;10.044;2023-03-04T00:03:16;6.00;99.90
354;DHT22;165;53.592;10.044;2023-03-04T00:05:42;6.10;99.90
354;DHT22;165;53.592;10.044;2023-03-04T00:08:07;6.10;99.90
354;DHT22;165;53.592;10.044;2023-03-04T00:10:33;6.10;99.90
354;DHT22;165;53.592;10.044;2023-03-04T00:12:58;6.10;99.90
354;DHT22;165;53.592;10.044;2023-03-04T00:15:24;6.10;99.90
354;DHT22;165;53.592;10.044;2023-03-04T00:17:49;6.10;99.90
354;DHT22;165;53.592;10.044;2023-03-04T00:20:15;6.10;99.90
354;DHT22;165;53.592;10.044;2023-03-04T00:22:40;6.10;99.90
354;DHT22;165;53.592;10.044;2023-03-04T00:25:06;6.10;99.90
354;DHT22;165;53.592;10.044;2023-03-04T00:27:31;6.10;99.90
354;DHT22;165;53.592;10.044;2023-03-04T00:29:57;6.10;99.90
354;DHT22;165;53.592;10.044;2023-03-04T00:32:22;6.10;99.90
354;DHT22;165;53.592;10.044;2023-03-04T00:34:48;6.10;99.90
354;DHT22;165;53.592;10.044;2023-03-04T00:37:13;6.10;99.90
354;DHT22;165;53.592;10.044;2023-03-04T00:39:39;6.10;99.90
354;DHT22;165;53.592;10.044;2023-03-04T00:42:05;6.10;99.90
354;DHT22;165;53.592;10.044;2023-03-04T00:44:30;6.10;99.90
354;DHT22;165;53.592;10.044;2023-03-04T00:46:56;6.10;99.90
354;DHT22;165;53.592;10.044;2023-03-04T00:49:21;6.10;99.90
354;DHT22;165;53.592;10.044;2023-03-04T00:51:47;6.20;99.90
354;DHT22;165;53.592;10.044;2023-03-04T00:54:12;6.20;99.90
354;DHT22;165;53.592;10.044;2023-03-04T00:56:39;6.20;99.90
354;DHT22;165;53.592;10.044;2023-03-04T00:59:04;6.20;99.90
354;DHT22;165;53.592;10.044;2023-03-04T01:01:30;6.20;99.90
354;DHT22;165;53.592;10.044;2023-03-04T01:03:56;6.20;99.90
354;DHT22;165;53.592;10.044;2023-03-04T01:06:22;6.20;99.90
354;DHT22;165;53.592;10.044;2023-03-04T01:08:48;6.30;99.90
354;DHT22;165;53.592;10.044;2023-03-04T01:11:13;6.30;99.90
354;DHT22;165;53.592;10.044;2023-03-04T01:13:39;6.20;99.90
354;DHT22;165;53.592;10.044;2023-03-04T01:16:05;6.20;99.90
354;DHT22;165;53.592;10.044;2023-03-04T01:18:30;6.30;99.90
354;DHT22;165;53.592;10.044;2023-03-04T01:20:56;6.20;99.90
354;DHT22;165;53.592;10.044;2023-03-04T01:23:22;6.20;99.90
354;DHT22;165;53.592;10.044;2023-03-04T01:25:47;6.20;99.90
354;DHT22;165;53.592;10.044;2023-03-04T01:28:13;6.20;99.90
354;DHT22;165;53.592;10.044;2023-03-04T01:30:38;6.30;99.90
354;DHT22;165;53.592;10.044;2023-03-04T01:33:04;6.30;99.90
354;DHT22;165;53.592;10.044;2023-03-04T01:35:29;6.20;99.90
354;DHT22;165;53.592;10.044;2023-03-04T01:37:55;6.30;99.90
354;DHT22;165;53.592;10.044;2023-03-04T01:40:20;6.30;99.90
354;DHT22;165;53.592;10.044;2023-03-04T01:42:46;6.30;99.90
354;DHT22;165;53.592;10.044;2023-03-04T01:45:17;6.30;99.90
354;DHT22;165;53.592;10.044;2023-03-04T01:47:45;6.30;99.90
354;DHT22;165;53.592;10.044;2023-03-04T01:50:19;6.40;99.90
354;DHT22;165;53.592;10.044;2023-03-04T01:52:45;6.30;99.90
354;DHT22;165;53.592;10.044;2023-03-04T01:55:19;6.30;99.90
354;DHT22;165;53.592;10.044;2023-03-04T01:57:47;6.30;99.90
354;DHT22;165;53.592;10.044;2023-03-04T02:02:45;6.30;99.90
354;DHT22;165;53.592;10.044;2023-03-04T02:05:11;6.30;99.90
354;DHT22;165;53.592;10.044;2023-03-04T02:07:37;6.30;99.90
354;DHT22;165;53.592;10.044;2023-03-04T02:10:04;6.30;99.90
354;DHT22;165;53.592;10.044;2023-03-04T02:12:30;6.40;99.90
354;DHT22;165;53.592;10.044;2023-03-04T02:14:55;6.30;99.90
354;DHT22;165;53.592;10.044;2023-03-04T02:17:25;6.30;99.90
354;DHT22;165;53.592;10.044;2023-03-04T02:23:15;6.30;99.90
354;DHT22;165;53.592;10.044;2023-03-04T02:25:44;6.30;99.90
354;DHT22;165;53.592;10.044;2023-03-04T02:28:11;6.30;99.90
354;DHT22;165;53.592;10.044;2023-03-04T02:30:37;6.30;99.90
354;DHT22;165;53.592;10.044;2023-03-04T02:33:03;6.30;99.90
354;DHT22;165;53.592;10.044;2023-03-04T02:35:28;6.30;99.90
354;DHT22;165;53.592;10.044;2023-03-04T02:37:54;6.30;99.90
354;DHT22;165;53.592;10.044;2023-03-04T02:40:27;6.30;99.90
354;DHT22;165;53.592;10.044;2023-03-04T02:42:53;6.30;99.90
354;DHT22;165;53.592;10.044;2023-03-04T02:45:41;6.30;99.90
354;DHT22;165;53.592;10.044;2023-03-04T02:48:07;6.30;99.90
354;DHT22;165;53.592;10.044;2023-03-04T02:50:40;6.30;99.90
354;DHT22;165;53.592;10.044;2023-03-04T02:53:06;6.30;99.90
354;DHT22;165;53.592;10.044;2023-03-04T02:55:32;6.20;99.90
354;DHT22;165;53.592;10.044;2023-03-04T02:57:58;6.20;99.90
354;DHT22;165;53.592;10.044;2023-03-04T03:00:24;6.20;99.90
354;DHT22;165;53.592;10.044;2023-03-04T03:02:49;6.20;99.90
354;DHT22;165;53.592;10.044;2023-03-04T03:05:15;6.20;99.90
354;DHT22;165;53.592;10.044;2023-03-04T03:07:41;6.20;99.90
354;DHT22;165;53.592;10.044;2023-03-04T03:10:07;6.20;99.90
354;DHT22;165;53.592;10.044;2023-03-04T03:12:32;6.20;99.90
354;DHT22;165;53.592;10.044;2023-03-04T03:14:58;6.20;99.90
354;DHT22;165;53.592;10.044;2023-03-04T03:17:23;6.20;99.90
354;DHT22;165;53.592;10.044;2023-03-04T03:19:49;6.20;99.90
354;DHT22;165;53.592;10.044;2023-03-04T03:22:14;6.20;99.90
354;DHT22;165;53.592;10.044;2023-03-04T03:24:40;6.20;99.90
354;DHT22;165;53.592;10.044;2023-03-04T03:27:05;6.20;99.90
354;DHT22;165;53.592;10.044;2023-03-04T03:29:31;6.30;99.90
354;DHT22;165;53.592;10.044;2023-03-04T03:31:56;6.30;99.90
354;DHT22;165;53.592;10.044;2023-03-04T03:34:22;6.30;99.90
354;DHT22;165;53.592;10.044;2023-03-04T03:36:47;6.40;99.90
354;DHT22;165;53.592;10.044;2023-03-04T03:39:13;6.30;99.90
354;DHT22;165;53.592;10.044;2023-03-04T03:41:38;6.30;99.90
354;DHT22;165;53.592;10.044;2023-03-04T03:44:04;6.30;99.90
354;DHT22;165;53.592;10.044;2023-03-04T03:46:29;6.30;99.90
354;DHT22;165;53.592;10.044;2023-03-04T03:48:55;6.40;99.90
354;DHT22;165;53.592;10.044;2023-03-04T03:51:20;6.40;99.90
354;DHT22;165;53.592;10.044;2023-03-04T03:53:46;6.40;99.90
354;DHT22;165;53.592;10.044;2023-03-04T03:56:11;6.40;99.90
354;DHT22;165;53.592;10.044;2023-03-04T03:58:36;6.40;99.90
354;DHT22;165;53.592;10.044;2023-03-04T04:01:02;6.30;99.90
354;DHT22;165;53.592;10.044;2023-03-04T04:03:28;6.30;99.90
354;DHT22;165;53.592;10.044;2023-03-04T04:05:53;6.30;99.90
354;DHT22;165;53.592;10.044;2023-03-04T04:08:19;6.30;99.90
354;DHT22;165;53.592;10.044;2023-03-04T04:10:45;6.30;99.90
354;DHT22;165;53.592;10.044;2023-03-04T04:13:10;6.30;99.90
354;DHT22;165;53.592;10.044;2023-03-04T04:15:36;6.20;99.90
354;DHT22;165;53.592;10.044;2023-03-04T04:18:02;6.30;99.90
354;DHT22;165;53.592;10.044;2023-03-04T04:20:27;6.20;99.90
354;DHT22;165;53.592;10.044;2023-03-04T04:22:52;6.20;99.90
354;DHT22;165;53.592;10.044;2023-03-04T04:25:18;6.20;99.90
354;DHT22;165;53.592;10.044;2023-03-04T04:27:43;6.20;99.90
354;DHT22;165;53.592;10.044;2023-03-04T04:30:09;6.20;99.90
354;DHT22;165;53.592;10.044;2023-03-04T04:32:35;6.20;99.90
354;DHT22;165;53.592;10.044;2023-03-04T04:35:00;6.30;99.90
354;DHT22;165;53.592;10.044;2023-03-04T04:37:26;6.20;99.90
354;DHT22;165;53.592;10.044;2023-03-04T04:39:51;6.20;99.90
354;DHT22;165;53.592;10.044;2023-03-04T04:42:17;6.30;99.90
354;DHT22;165;53.592;10.044;2023-03-04T04:44:42;6.30;99.90
354;DHT22;165;53.592;10.044;2023-03-04T04:47:08;6.40;99.90
354;DHT22;165;53.592;10.044;2023-03-04T04:49:34;6.40;99.90
354;DHT22;165;53.592;10.044;2023-03-04T04:52:00;6.40;99.90
354;DHT22;165;53.592;10.044;2023-03-04T04:54:25;6.40;99.90
354;DHT22;165;53.592;10.044;2023-03-04T04:56:51;6.40;99.90
354;DHT22;165;53.592;10.044;2023-03-04T04:59:16;6.40;99.90
354;DHT22;165;53.592;10.044;2023-03-04T05:01:42;6.40;99.90
354;DHT22;165;53.592;10.044;2023-03-04T05:04:07;6.40;99.90
354;DHT22;165;53.592;10.044;2023-03-04T05:06:33;6.40;99.90
354;DHT22;165;53.592;10.044;2023-03-04T05:08:58;6.40;99.90
354;DHT22;165;53.592;10.044;2023-03-04T05:11:24;6.40;99.90
354;DHT22;165;53.592;10.044;2023-03-04T05:13:49;6.30;99.90
354;DHT22;165;53.592;10.044;2023-03-04T05:16:16;6.40;99.90
354;DHT22;165;53.592;10.044;2023-03-04T05:18:42;6.40;99.90
354;DHT22;165;53.592;10.044;2023-03-04T05:21:08;6.40;99.90
354;DHT22;165;53.592;10.044;2023-03-04T05:23:36;6.40;99.90
354;DHT22;165;53.592;10.044;2023-03-04T05:26:04;6.40;99.90
354;DHT22;165;53.592;10.044;2023-03-04T05:28:30;6.40;99.90
354;DHT22;165;53.592;10.044;2023-03-04T05:30:56;6.40;99.90
354;DHT22;165;53.592;10.044;2023-03-04T05:33:21;6.40;99.90
354;DHT22;165;53.592;10.044;2023-03-04T05:35:48;6.30;99.90
354;DHT22;165;53.592;10.044;2023-03-04T05:38:16;6.40;99.90
354;DHT22;165;53.592;10.044;2023-03-04T05:40:43;6.30;99.90
354;DHT22;165;53.592;10.044;2023-03-04T05:43:08;6.30;99.90
354;DHT22;165;53.592;10.044;2023-03-04T05:45:34;6.20;99.90
354;DHT22;165;53.592;10.044;2023-03-04T05:48:00;6.20;99.90
354;DHT22;165;53.592;10.044;2023-03-04T05:50:25;6.20;99.90
354;DHT22;165;53.592;10.044;2023-03-04T05:52:51;6.20;99.90
354;DHT22;165;53.592;10.044;2023-03-04T05:55:17;6.10;99.90
354;DHT22;165;53.592;10.044;2023-03-04T05:57:43;6.00;99.90
354;DHT22;165;53.592;10.044;2023-03-04T06:00:09;6.00;99.90
354;DHT22;165;53.592;10.044;2023-03-04T06:02:35;6.00;99.90
354;DHT22;165;53.592;10.044;2023-03-04T06:05:02;6.00;99.90
354;DHT22;165;53.592;10.044;2023-03-04T06:07:28;6.00;99.90
354;DHT22;165;53.592;10.044;2023-03-04T06:09:53;6.00;99.90
354;DHT22;165;53.592;10.044;2023-03-04T06:12:18;6.00;99.90
354;DHT22;165;53.592;10.044;2023-03-04T06:14:44;6.10;99.90
354;DHT22;165;53.592;10.044;2023-03-04T06:17:09;6.00;99.90
354;DHT22;165;53.592;10.044;2023-03-04T06:19:35;6.00;99.90
354;DHT22;165;53.592;10.044;2023-03-04T06:22:00;6.10;99.90
354;DHT22;165;53.592;10.044;2023-03-04T06:24:26;6.00;99.90
354;DHT22;165;53.592;10.044;2023-03-04T06:26:51;6.00;99.90
354;DHT22;165;53.592;10.044;2023-03-04T06:29:17;6.00;99.90
354;DHT22;165;53.592;10.044;2023-03-04T06:31:42;5.90;99.90
354;DHT22;165;53.592;10.044;2023-03-04T06:34:08;5.90;99.90
354;DHT22;165;53.592;10.044;2023-03-04T06:36:34;5.90;99.90
354;DHT22;165;53.592;10.044;2023-03-04T06:39:02;5.90;99.90
354;DHT22;165;53.592;10.044;2023-03-04T06:41:28;5.90;99.90
354;DHT22;165;53.592;10.044;2023-03-04T06:43:54;5.90;99.90
354;DHT22;165;53.592;10.044;2023-03-04T06:46:20;5.90;99.90
354;DHT22;165;53.592;10.044;2023-03-04T06:48:45;5.90;99.90
354;DHT22;165;53.592;10.044;2023-03-04T06:51:11;5.90;99.90
354;DHT22;165;53.592;10.044;2023-03-04T06:53:38;5.90;99.90
354;DHT22;165;53.592;10.044;2023-03-04T06:56:04;6.00;99.90
354;DHT22;165;53.592;10.044;2023-03-04T06:58:30;6.00;99.90
354;DHT22;165;53.592;10.044;2023-03-04T07:00:56;6.10;99.90
354;DHT22;165;53.592;10.044;2023-03-04T07:03:21;6.00;99.90
354;DHT22;165;53.592;10.044;2023-03-04T07:05:47;6.20;99.90
354;DHT22;165;53.592;10.044;2023-03-04T07:08:12;6.10;99.90
354;DHT22;165;53.592;10.044;2023-03-04T07:10:37;6.10;99.90
354;DHT22;165;53.592;10.044;2023-03-04T07:13:03;6.10;99.90
354;DHT22;165;53.592;10.044;2023-03-04T07:15:29;6.10;99.90
354;DHT22;165;53.592;10.044;2023-03-04T07:17:54;6.10;99.90
354;DHT22;165;53.592;10.044;2023-03-04T07:20:20;6.10;99.90
354;DHT22;165;53.592;10.044;2023-03-04T07:22:45;6.20;99.90
354;DHT22;165;53.592;10.044;2023-03-04T07:25:11;6.20;99.90
354;DHT22;165;53.592;10.044;2023-03-04T07:27:36;6.20;99.90
354;DHT22;165;53.592;10.044;2023-03-04T07:30:02;6.10;99.90
354;DHT22;165;53.592;10.044;2023-03-04T07:32:27;6.10;99.90
354;DHT22;165;53.592;10.044;2023-03-04T07:34:52;6.20;99.90
354;DHT22;165;53.592;10.044;2023-03-04T07:37:18;6.20;99.90
354;DHT22;165;53.592;10.044;2023-03-04T07:39:43;6.10;99.90
354;DHT22;165;53.592;10.044;2023-03-04T07:42:08;6.10;99.90
354;DHT22;165;53.592;10.044;2023-03-04T07:44:34;6.20;99.90
354;DHT22;165;53.592;10.044;2023-03-04T07:46:59;6.20;99.90
354;DHT22;165;53.592;10.044;2023-03-04T07:49:25;6.30;99.90
354;DHT22;165;53.592;10.044;2023-03-04T07:51:50;6.30;99.90
354;DHT22;165;53.592;10.044;2023-03-04T07:54:15;6.40;99.90
354;DHT22;165;53.592;10.044;2023-03-04T07:56:41;6.40;99.90
354;DHT22;165;53.592;10.044;2023-03-04T07:59:07;6.20;99.90
354;DHT22;165;53.592;10.044;2023-03-04T08:01:38;6.20;99.90
354;DHT22;165;53.592;10.044;2023-03-04T08:04:04;6.20;99.90
354;DHT22;165;53.592;10.044;2023-03-04T08:06:29;6.30;99.90
354;DHT22;165;53.592;10.044;2023-03-04T08:08:59;6.30;99.90
354;DHT22;165;53.592;10.044;2023-03-04T08:11:25;6.40;99.90
354;DHT22;165;53.592;10.044;2023-03-04T08:13:50;6.40;99.90
354;DHT22;165;53.592;10.044;2023-03-04T08:16:16;6.40;99.90
354;DHT22;165;53.592;10.044;2023-03-04T08:18:42;6.40;99.90
354;DHT22;165;53.592;10.044;2023-03-04T08:21:11;6.50;99.90
354;DHT22;165;53.592;10.044;2023-03-04T08:23:37;6.40;99.90
354;DHT22;165;53.592;10.044;2023-03-04T08:26:06;6.40;99.90
354;DHT22;165;53.592;10.044;2023-03-04T08:28:32;6.40;99.90
354;DHT22;165;53.592;10.044;2023-03-04T08:30:57;6.30;99.90
354;DHT22;165;53.592;10.044;2023-03-04T08:33:22;6.40;99.90
354;DHT22;165;53.592;10.044;2023-03-04T08:35:48;6.40;99.90
354;DHT22;165;53.592;10.044;2023-03-04T08:38:13;6.40;99.90
354;DHT22;165;53.592;10.044;2023-03-04T08:40:39;6.40;99.90
354;DHT22;165;53.592;10.044;2023-03-04T08:43:04;6.40;99.90
354;DHT22;165;53.592;10.044;2023-03-04T08:45:30;6.40;99.90
354;DHT22;165;53.592;10.044;2023-03-04T08:47:55;6.50;99.90
354;DHT22;165;53.592;10.044;2023-03-04T08:50:21;6.40;99.90
354;DHT22;165;53.592;10.044;2023-03-04T08:52:46;6.40;99.90
354;DHT22;165;53.592;10.044;2023-03-04T08:55:12;6.50;99.90
354;DHT22;165;53.592;10.044;2023-03-04T08:57:37;6.60;99.90
354;DHT22;165;53.592;10.044;2023-03-04T09:00:03;6.70;99.90
354;DHT22;165;53.592;10.044;2023-03-04T09:02:29;6.70;99.90
354;DHT22;165;53.592;10.044;2023-03-04T09:04:54;6.60;99.90
354;DHT22;165;53.592;10.044;2023-03-04T09:07:20;6.50;99.90
354;DHT22;165;53.592;10.044;2023-03-04T09:09:45;6.60;99.90
354;DHT22;165;53.592;10.044;2023-03-04T09:12:11;6.70;99.90
354;DHT22;165;53.592;10.044;2023-03-04T09:14:36;6.80;99.90
354;DHT22;165;53.592;10.044;2023-03-04T09:17:03;6.80;99.90
354;DHT22;165;53.592;10.044;2023-03-04T09:19:29;6.80;99.90
354;DHT22;165;53.592;10.044;2023-03-04T09:21:54;6.80;99.90
354;DHT22;165;53.592;10.044;2023-03-04T09:24:20;6.80;99.90
354;DHT22;165;53.592;10.044;2023-03-04T09:26:49;6.80;99.90
354;DHT22;165;53.592;10.044;2023-03-04T09:29:14;6.70;99.90
354;DHT22;165;53.592;10.044;2023-03-04T09:31:40;6.50;99.90
354;DHT22;165;53.592;10.044;2023-03-04T09:34:05;6.50;99.90
354;DHT22;165;53.592;10.044;2023-03-04T09:36:31;6.70;99.90
354;DHT22;165;53.592;10.044;2023-03-04T09:39:01;6.80;99.90
354;DHT22;165;53.592;10.044;2023-03-04T09:41:41;6.90;99.90
354;DHT22;165;53.592;10.044;2023-03-04T09:46:49;7.00;99.90
354;DHT22;165;53.592;10.044;2023-03-04T09:49:17;7.00;99.90
354;DHT22;165;53.592;10.044;2023-03-04T09:51:50;7.00;99.90
354;DHT22;165;53.592;10.044;2023-03-04T09:54:49;7.00;99.90
354;DHT22;165;53.592;10.044;2023-03-04T10:00:15;7.00;99.90
354;DHT22;165;53.592;10.044;2023-03-04T10:05:59;6.90;99.90
354;DHT22;165;53.592;10.044;2023-03-04T10:08:49;6.90;99.90
354;DHT22;165;53.592;10.044;2023-03-04T10:11:22;7.10;99.90
354;DHT22;165;53.592;10.044;2023-03-04T10:14:03;7.10;99.90
354;DHT22;165;53.592;10.044;2023-03-04T10:16:45;7.10;99.90
354;DHT22;165;53.592;10.044;2023-03-04T10:19:27;7.20;99.90
354;DHT22;165;53.592;10.044;2023-03-04T10:21:54;7.30;99.90
354;DHT22;165;53.592;10.044;2023-03-04T10:24:22;7.40;99.90
354;DHT22;165;53.592;10.044;2023-03-04T10:27:01;7.50;99.90
354;DHT22;165;53.592;10.044;2023-03-04T10:29:30;7.40;99.90
354;DHT22;165;53.592;10.044;2023-03-04T10:31:56;7.40;99.90
354;DHT22;165;53.592;10.044;2023-03-04T10:34:22;7.40;99.90
354;DHT22;165;53.592;10.044;2023-03-04T10:37:02;7.40;99.90
354;DHT22;165;53.592;10.044;2023-03-04T10:39:31;7.50;99.90
354;DHT22;165;53.592;10.044;2023-03-04T10:44:25;7.90;99.90
354;DHT22;165;53.592;10.044;2023-03-04T10:46:53;7.80;99.90
354;DHT22;165;53.592;10.044;2023-03-04T10:49:19;7.70;99.90
354;DHT22;165;53.592;10.044;2023-03-04T10:51:47;7.70;99.90
354;DHT22;165;53.592;10.044;2023-03-04T10:57:03;7.70;99.90
354;DHT22;165;53.592;10.044;2023-03-04T10:59:55;7.60;99.90
354;DHT22;165;53.592;10.044;2023-03-04T11:02:33;7.50;99.90
354;DHT22;165;53.592;10.044;2023-03-04T11:07:42;7.50;99.90
354;DHT22;165;53.592;10.044;2023-03-04T11:10:13;7.50;99.90
354;DHT22;165;53.592;10.044;2023-03-04T11:12:39;7.50;99.90
354;DHT22;165;53.592;10.044;2023-03-04T11:15:17;7.60;99.90
354;DHT22;165;53.592;10.044;2023-03-04T11:17:46;7.60;99.90
354;DHT22;165;53.592;10.044;2023-03-04T11:20:29;7.80;99.90
354;DHT22;165;53.592;10.044;2023-03-04T11:22:59;7.90;99.90
354;DHT22;165;53.592;10.044;2023-03-04T11:25:32;8.20;99.90
354;DHT22;165;53.592;10.044;2023-03-04T11:28:02;8.40;99.90
354;DHT22;165;53.592;10.044;2023-03-04T11:30:43;8.70;99.90
354;DHT22;165;53.592;10.044;2023-03-04T11:38:21;9.00;99.90
354;DHT22;165;53.592;10.044;2023-03-04T11:40:59;9.00;99.90
354;DHT22;165;53.592;10.044;2023-03-04T11:43:35;8.90;99.90
354;DHT22;165;53.592;10.044;2023-03-04T11:52:21;9.30;99.90
354;DHT22;165;53.592;10.044;2023-03-04T12:03:14;9.00;99.90
354;DHT22;165;53.592;10.044;2023-03-04T12:11:33;8.80;99.90
354;DHT22;165;53.592;10.044;2023-03-04T12:14:15;8.90;99.90
354;DHT22;165;53.592;10.044;2023-03-04T12:16:47;8.80;99.90
354;DHT22;165;53.592;10.044;2023-03-04T12:19:26;8.70;99.90
354;DHT22;165;53.592;10.044;2023-03-04T12:22:02;8.60;99.90
354;DHT22;165;53.592;10.044;2023-03-04T12:27:44;8.40;99.90
354;DHT22;165;53.592;10.044;2023-03-04T12:30:29;8.40;99.90
354;DHT22;165;53.592;10.044;2023-03-04T12:38:44;8.40;99.90
354;DHT22;165;53.592;10.044;2023-03-04T12:41:26;8.50;99.90
354;DHT22;165;53.592;10.044;2023-03-04T12:44:05;8.60;99.90
354;DHT22;165;53.592;10.044;2023-03-04T12:52:15;8.70;99.90
354;DHT22;165;53.592;10.044;2023-03-04T12:54:55;8.80;99.90
354;DHT22;165;53.592;10.044;2023-03-04T12:57:26;8.90;99.90
354;DHT22;165;53.592;10.044;2023-03-04T13:02:56;9.30;99.90
354;DHT22;165;53.592;10.044;2023-03-04T13:05:50;9.40;99.90
354;DHT22;165;53.592;10.044;2023-03-04T13:08:32;9.50;99.90
354;DHT22;165;53.592;10.044;2023-03-04T13:16:43;8.60;99.90
354;DHT22;165;53.592;10.044;2023-03-04T13:22:50;8.70;99.90
354;DHT22;165;53.592;10.044;2023-03-04T13:28:20;8.80;99.90
354;DHT22;165;53.592;10.044;2023-03-04T13:38:32;8.90;99.90
354;DHT22;165;53.592;10.044;2023-03-04T13:43:59;8.40;99.90
354;DHT22;165;53.592;10.044;2023-03-04T13:51:17;8.30;99.90
354;DHT22;165;53.592;10.044;2023-03-04T13:53:53;8.20;99.90
354;DHT22;165;53.592;10.044;2023-03-04T13:56:33;8.10;99.90
354;DHT22;165;53.592;10.044;2023-03-04T14:04:20;8.30;99.90
354;DHT22;165;53.592;10.044;2023-03-04T14:06:51;8.20;99.90
354;DHT22;165;53.592;10.044;2023-03-04T14:09:30;8.10;99.90
354;DHT22;165;53.592;10.044;2023-03-04T14:12:13;7.90;99.90
354;DHT22;165;53.592;10.044;2023-03-04T14:14:46;8.00;99.90
354;DHT22;165;53.592;10.044;2023-03-04T14:17:31;7.90;99.90
354;DHT22;165;53.592;10.044;2023-03-04T14:19:58;7.80;99.90
354;DHT22;165;53.592;10.044;2023-03-04T14:22:28;7.80;99.90
354;DHT22;165;53.592;10.044;2023-03-04T14:25:21;7.70;99.90
354;DHT22;165;53.592;10.044;2023-03-04T14:27:46;7.90;99.90
354;DHT22;165;53.592;10.044;2023-03-04T14:30:24;7.90;99.90
354;DHT22;165;53.592;10.044;2023-03-04T14:32:52;7.80;99.90
354;DHT22;165;53.592;10.044;2023-03-04T14:35:21;7.80;99.90
354;DHT22;165;53.592;10.044;2023-03-04T14:38:03;7.70;99.90
354;DHT22;165;53.592;10.044;2023-03-04T14:40:37;7.70;99.90
354;DHT22;165;53.592;10.044;2023-03-04T14:43:21;7.70;99.90
354;DHT22;165;53.592;10.044;2023-03-04T14:45:52;7.70;99.90
354;DHT22;165;53.592;10.044;2023-03-04T14:48:26;7.50;99.90
354;DHT22;165;53.592;10.044;2023-03-04T14:50:53;7.40;99.90
354;DHT22;165;53.592;10.044;2023-03-04T14:53:22;7.30;99.90
354;DHT22;165;53.592;10.044;2023-03-04T14:55:59;7.30;99.90
354;DHT22;165;53.592;10.044;2023-03-04T14:58:27;7.30;99.90
354;DHT22;165;53.592;10.044;2023-03-04T15:03:56;7.20;99.90
354;DHT22;165;53.592;10.044;2023-03-04T15:06:24;7.20;99.90
354;DHT22;165;53.592;10.044;2023-03-04T15:09:04;7.10;99.90
354;DHT22;165;53.592;10.044;2023-03-04T15:11:50;7.00;99.90
354;DHT22;165;53.592;10.044;2023-03-04T15:14:46;6.90;99.90
354;DHT22;165;53.592;10.044;2023-03-04T15:17:34;6.80;99.90
354;DHT22;165;53.592;10.044;2023-03-04T15:22:59;6.80;99.90
354;DHT22;165;53.592;10.044;2023-03-04T15:25:25;7.00;99.90
354;DHT22;165;53.592;10.044;2023-03-04T15:27:51;7.00;99.90
354;DHT22;165;53.592;10.044;2023-03-04T15:30:57;7.00;99.90
354;DHT22;165;53.592;10.044;2023-03-04T17:07:37;5.50;99.90
354;DHT22;165;53.592;10.044;2023-03-04T17:10:06;5.50;99.90
354;DHT22;165;53.592;10.044;2023-03-04T17:12:31;5.50;99.90
354;DHT22;165;53.592;10.044;2023-03-04T17:14:57;5.40;99.90
354;DHT22;165;53.592;10.044;2023-03-04T17:17:25;5.40;99.90
354;DHT22;165;53.592;10.044;2023-03-04T17:19:51;5.40;99.90
354;DHT22;165;53.592;10.044;2023-03-04T17:22:17;5.60;99.90
354;DHT22;165;53.592;10.044;2023-03-04T17:24:42;5.40;99.90
354;DHT22;165;53.592;10.044;2023-03-04T17:30:12;5.30;99.90
354;DHT22;165;53.592;10.044;2023-03-04T17:32:39;5.30;99.90
354;DHT22;165;53.592;10.044;2023-03-04T17:35:32;5.30;99.90
354;DHT22;165;53.592;10.044;2023-03-04T17:38:00;5.50;99.90
354;DHT22;165;53.592;10.044;2023-03-04T17:40:31;5.30;99.90
354;DHT22;165;53.592;10.044;2023-03-04T17:42:59;5.30;99.90
354;DHT22;165;53.592;10.044;2023-03-04T17:45:25;5.20;99.90
354;DHT22;165;53.592;10.044;2023-03-04T17:47:51;5.10;99.90
354;DHT22;165;53.592;10.044;2023-03-04T17:50:16;5.10;99.90
354;DHT22;165;53.592;10.044;2023-03-04T17:52:42;5.10;99.90
354;DHT22;165;53.592;10.044;2023-03-04T17:55:08;5.10;99.90
354;DHT22;165;53.592;10.044;2023-03-04T17:57:37;5.10;99.90
354;DHT22;165;53.592;10.044;2023-03-04T18:00:04;5.00;99.90
354;DHT22;165;53.592;10.044;2023-03-04T18:02:29;5.00;99.90
354;DHT22;165;53.592;10.044;2023-03-04T18:04:55;5.00;99.90
354;DHT22;165;53.592;10.044;2023-03-04T18:07:20;5.00;99.90
354;DHT22;165;53.592;10.044;2023-03-04T18:09:46;4.90;99.90
354;DHT22;165;53.592;10.044;2023-03-04T18:12:12;4.90;99.90
354;DHT22;165;53.592;10.044;2023-03-04T18:14:38;4.90;99.90
354;DHT22;165;53.592;10.044;2023-03-04T18:17:03;4.90;99.90
354;DHT22;165;53.592;10.044;2023-03-04T18:19:35;4.90;99.90
354;DHT22;165;53.592;10.044;2023-03-04T18:22:00;4.80;99.90
354;DHT22;165;53.592;10.044;2023-03-04T18:24:26;4.70;99.90
354;DHT22;165;53.592;10.044;2023-03-04T18:26:51;4.60;99.90
354;DHT22;165;53.592;10.044;2023-03-04T18:29:17;4.60;99.90
354;DHT22;165;53.592;10.044;2023-03-04T18:31:42;4.60;99.90
354;DHT22;165;53.592;10.044;2023-03-04T18:34:09;4.60;99.90
354;DHT22;165;53.592;10.044;2023-03-04T18:36:35;4.50;99.90
354;DHT22;165;53.592;10.044;2023-03-04T18:39:00;4.50;99.90
354;DHT22;165;53.592;10.044;2023-03-04T18:41:26;4.50;99.90
354;DHT22;165;53.592;10.044;2023-03-04T18:43:54;4.40;99.90
354;DHT22;165;53.592;10.044;2023-03-04T18:46:28;4.40;99.90
354;DHT22;165;53.592;10.044;2023-03-04T18:48:59;4.40;99.90
354;DHT22;165;53.592;10.044;2023-03-04T18:51:26;4.30;99.90
354;DHT22;165;53.592;10.044;2023-03-04T18:53:51;4.30;99.90
354;DHT22;165;53.592;10.044;2023-03-04T18:56:27;4.20;99.90
354;DHT22;165;53.592;10.044;2023-03-04T18:58:57;4.20;99.90
354;DHT22;165;53.592;10.044;2023-03-04T19:01:23;4.20;99.90
354;DHT22;165;53.592;10.044;2023-03-04T19:03:56;4.10;99.90
354;DHT22;165;53.592;10.044;2023-03-04T19:06:22;4.10;99.90
354;DHT22;165;53.592;10.044;2023-03-04T19:08:48;4.10;99.90
354;DHT22;165;53.592;10.044;2023-03-04T19:11:13;4.10;99.90
354;DHT22;165;53.592;10.044;2023-03-04T19:13:39;4.00;99.90
354;DHT22;165;53.592;10.044;2023-03-04T19:16:07;4.00;99.90
354;DHT22;165;53.592;10.044;2023-03-04T19:18:33;4.00;99.90
354;DHT22;165;53.592;10.044;2023-03-04T19:20:59;3.90;99.90
354;DHT22;165;53.592;10.044;2023-03-04T19:23:24;3.90;99.90
354;DHT22;165;53.592;10.044;2023-03-04T19:25:50;3.80;99.90
354;DHT22;165;53.592;10.044;2023-03-04T19:28:16;3.80;99.90
354;DHT22;165;53.592;10.044;2023-03-04T19:30:41;3.80;99.90
354;DHT22;165;53.592;10.044;2023-03-04T19:33:07;3.80;99.90
354;DHT22;165;53.592;10.044;2023-03-04T19:35:32;3.80;99.90
354;DHT22;165;53.592;10.044;2023-03-04T19:37:59;3.70;99.90
354;DHT22;165;53.592;10.044;2023-03-04T19:40:25;3.70;99.90
354;DHT22;165;53.592;10.044;2023-03-04T19:42:51;3.80;99.90
354;DHT22;165;53.592;10.044;2023-03-04T19:45:16;3.80;99.90
354;DHT22;165;53.592;10.044;2023-03-04T19:47:42;3.80;99.90
354;DHT22;165;53.592;10.044;2023-03-04T19:50:10;3.90;99.90
354;DHT22;165;53.592;10.044;2023-03-04T19:52:36;3.90;99.90
354;DHT22;165;53.592;10.044;2023-03-04T19:55:02;3.90;99.90
354;DHT22;165;53.592;10.044;2023-03-04T19:57:28;3.90;99.90
354;DHT22;165;53.592;10.044;2023-03-04T19:59:54;4.00;99.90
354;DHT22;165;53.592;10.044;2023-03-04T20:02:19;4.00;99.90